createdAt,value
2023-03-15T00:01:15.956Z,3.07
2023-03-15T00:06:28.335Z,3.23
2023-03-15T00:11:32.032Z,3.44
2023-03-15T00:16:34.441Z,3.54
2023-03-15T00:21:39.848Z,3.55
2023-03-15T00:26:42.697Z,3.51
2023-03-15T00:31:45.154Z,3.36
2023-03-15T00:36:47.441Z,2.91
2023-03-15T00:41:52.291Z,2.53
2023-03-15T00:47:00.733Z,2.56
2023-03-15T00:52:03.131Z,2.35
2023-03-15T00:57:06.211Z,0.65
2023-03-15T01:02:09.008Z,0.20
2023-03-15T01:07:21.391Z,0.11
2023-03-15T01:12:24.092Z,0.08
2023-03-15T01:17:26.770Z,0.14
2023-03-15T01:22:29.476Z,0.25
2023-03-15T01:27:31.791Z,0.27
2023-03-15T01:32:34.500Z,0.30
2023-03-15T01:37:37.651Z,0.29
2023-03-15T01:42:42.328Z,0.35
2023-03-15T01:47:44.659Z,0.53
2023-03-15T01:52:46.966Z,0.51
2023-03-15T01:57:49.354Z,0.60
2023-03-15T02:02:51.815Z,0.59
2023-03-15T02:07:54.957Z,0.70
2023-03-15T02:12:57.451Z,0.79
2023-03-15T02:18:00.129Z,0.79
2023-03-15T02:23:02.602Z,0.80
2023-03-15T02:28:05.772Z,0.81
2023-03-15T02:33:08.324Z,0.84
2023-03-15T02:38:10.753Z,0.94
2023-03-15T02:43:13.683Z,1.04
2023-03-15T02:48:21.295Z,0.99
2023-03-15T02:53:24.370Z,0.91
2023-03-15T02:58:27.028Z,0.73
2023-03-15T03:03:39.446Z,0.42
2023-03-15T03:08:42.047Z,0.21
2023-03-15T03:13:45.874Z,0.15
2023-03-15T03:18:58.312Z,0.02
2023-03-15T03:24:01.850Z,-0.16
2023-03-15T03:29:05.670Z,-0.32
2023-03-15T03:34:09.554Z,-0.27
2023-03-15T03:39:11.934Z,-0.22
2023-03-15T03:44:14.717Z,-0.18
2023-03-15T03:49:17.425Z,-0.17
2023-03-15T03:54:29.853Z,-0.15
2023-03-15T03:59:42.367Z,-0.10
2023-03-15T04:04:54.821Z,-0.19
2023-03-15T04:09:57.749Z,-0.22
2023-03-15T04:15:00.510Z,-0.24
2023-03-15T04:20:05.707Z,-0.26
2023-03-15T04:25:08.905Z,-0.20
2023-03-15T04:30:11.645Z,-0.22
2023-03-15T04:35:14.916Z,-0.15
2023-03-15T04:40:17.279Z,-0.10
2023-03-15T04:45:20.494Z,-0.13
2023-03-15T04:50:23.190Z,-0.12
2023-03-15T04:55:25.674Z,-0.08
2023-03-15T05:00:28.013Z,-0.20
2023-03-15T05:05:33.152Z,-0.19
2023-03-15T05:10:36.916Z,-0.32
2023-03-15T05:15:40.597Z,-0.27
2023-03-15T05:20:43.585Z,-0.33
2023-03-15T05:25:46.041Z,-0.33
2023-03-15T05:30:48.806Z,-0.24
2023-03-15T05:35:57.551Z,-0.28
2023-03-15T05:41:02.097Z,-0.18
2023-03-15T05:46:05.541Z,-0.19
2023-03-15T05:51:08.375Z,-0.31
2023-03-15T05:56:10.714Z,-0.29
2023-03-15T06:01:13.882Z,-0.25
2023-03-15T06:06:16.301Z,-0.34
2023-03-15T06:11:19.125Z,-0.40
2023-03-15T06:16:21.539Z,-0.40
2023-03-15T06:21:23.975Z,-0.40
2023-03-15T06:26:26.702Z,-0.30
2023-03-15T06:31:29.386Z,-0.15
2023-03-15T06:36:32.417Z,-0.13
2023-03-15T06:41:34.821Z,0.06
2023-03-15T06:46:37.109Z,0.11
2023-03-15T06:51:39.496Z,0.34
2023-03-15T06:56:41.824Z,0.44
2023-03-15T07:01:45.047Z,0.47
2023-03-15T07:06:47.504Z,0.47
2023-03-15T07:11:50.290Z,0.63
2023-03-15T07:16:53.541Z,1.25
2023-03-15T07:21:55.895Z,1.47
2023-03-15T07:26:58.276Z,1.06
2023-03-15T07:32:01.342Z,1.08
2023-03-15T07:37:03.758Z,1.10
2023-03-15T07:42:08.132Z,1.00
2023-03-15T07:47:10.772Z,1.00
2023-03-15T07:52:13.964Z,1.15
2023-03-15T07:57:17.291Z,1.32
2023-03-15T08:02:19.922Z,1.53
2023-03-15T08:07:22.993Z,1.68
2023-03-15T08:12:25.747Z,1.92
2023-03-15T08:17:28.499Z,1.73
2023-03-15T08:22:31.962Z,1.77
2023-03-15T08:27:34.457Z,1.93
2023-03-15T08:32:37.142Z,2.51
2023-03-15T08:37:39.491Z,2.82
2023-03-15T08:42:41.894Z,2.96
2023-03-15T08:47:44.598Z,2.87
2023-03-15T08:52:48.629Z,3.12
2023-03-15T08:57:51.957Z,3.47
2023-03-15T09:02:55.064Z,3.33
2023-03-15T09:08:00.355Z,3.53
2023-03-15T09:13:02.746Z,4.31
2023-03-15T09:18:05.166Z,4.44
2023-03-15T09:23:07.775Z,4.41
2023-03-15T09:28:11.372Z,4.10
2023-03-15T09:33:14.830Z,4.41
2023-03-15T09:38:18.136Z,4.59
2023-03-15T09:43:20.453Z,4.46
2023-03-15T09:48:24.139Z,4.29
2023-03-15T09:53:27.504Z,4.65
2023-03-15T09:58:32.579Z,4.64
2023-03-15T10:03:36.920Z,4.45
2023-03-15T10:08:39.378Z,4.36
2023-03-15T10:13:42.384Z,4.15
2023-03-15T10:18:45.707Z,3.63
2023-03-15T10:23:48.175Z,3.48
2023-03-15T10:28:51.339Z,3.73
2023-03-15T10:33:53.966Z,4.06
2023-03-15T10:38:56.871Z,4.97
2023-03-15T10:43:59.526Z,5.35
2023-03-15T10:49:02.294Z,5.02
2023-03-15T10:54:04.723Z,4.43
2023-03-15T10:59:12.886Z,4.60
2023-03-15T11:04:16.306Z,4.81
2023-03-15T11:09:18.988Z,5.19
2023-03-15T11:14:22.273Z,5.34
2023-03-15T11:19:25.168Z,5.60
2023-03-15T11:24:28.491Z,5.91
2023-03-15T11:29:40.846Z,5.82
2023-03-15T11:34:43.211Z,6.19
2023-03-15T11:39:45.804Z,6.29
2023-03-15T11:44:48.162Z,6.64
2023-03-15T11:50:00.631Z,6.53
2023-03-15T11:55:03.601Z,6.66
2023-03-15T12:00:07.591Z,6.40
2023-03-15T12:05:18.081Z,6.41
2023-03-15T12:10:21.107Z,6.14
2023-03-15T12:15:26.472Z,5.82
2023-03-15T12:20:29.035Z,5.89
2023-03-15T12:25:32.529Z,5.84
2023-03-15T12:30:35.132Z,6.10
2023-03-15T12:35:38.880Z,5.87
2023-03-15T12:40:41.373Z,6.44
2023-03-15T12:45:45.545Z,6.91
2023-03-15T12:50:50.745Z,6.54
2023-03-15T12:55:59.455Z,6.04
2023-03-15T13:01:09.891Z,6.21
2023-03-15T13:06:13.062Z,6.26
2023-03-15T13:11:16.179Z,6.19
2023-03-15T13:16:19.818Z,6.52
2023-03-15T13:21:22.192Z,6.36
2023-03-15T13:26:24.962Z,6.37
2023-03-15T13:31:29.945Z,6.45
2023-03-15T13:36:33.840Z,7.11
2023-03-15T13:41:36.444Z,7.36
2023-03-15T13:46:38.854Z,6.99
2023-03-15T13:51:51.204Z,7.06
2023-03-15T13:56:55.355Z,6.93
2023-03-15T14:01:58.738Z,6.65
2023-03-15T14:07:03.452Z,6.67
2023-03-15T14:12:06.242Z,6.97
2023-03-15T14:17:09.731Z,7.21
2023-03-15T14:22:12.159Z,6.87
2023-03-15T14:27:15.647Z,6.79
2023-03-15T14:32:18.776Z,6.66
2023-03-15T14:37:21.132Z,7.13
2023-03-15T14:42:24.954Z,6.86
2023-03-15T14:47:27.298Z,6.76
2023-03-15T14:52:29.709Z,6.71
2023-03-15T14:57:32.094Z,6.49
2023-03-15T15:02:35.505Z,6.60
2023-03-15T15:07:41.633Z,6.23
2023-03-15T15:12:46.745Z,6.25
2023-03-15T15:17:53.401Z,6.13
2023-03-15T15:22:57.889Z,6.09
2023-03-15T15:28:00.234Z,6.38
2023-03-15T15:33:06.145Z,6.14
2023-03-15T15:38:08.485Z,6.20
2023-03-15T15:43:10.983Z,6.09
2023-03-15T15:48:13.508Z,6.02
2023-03-15T15:53:16.200Z,5.20
2023-03-15T15:58:18.839Z,4.68
2023-03-15T16:03:22.018Z,4.29
2023-03-15T16:08:24.912Z,4.03
2023-03-15T16:13:28.356Z,3.85
2023-03-15T16:18:32.304Z,3.73
2023-03-15T16:23:34.978Z,3.50
2023-03-15T16:28:37.495Z,3.37
2023-03-15T16:33:40.284Z,3.16
2023-03-15T16:38:42.726Z,3.08
2023-03-15T16:43:47.312Z,3.12
2023-03-15T16:48:51.877Z,3.34
2023-03-15T16:54:02.309Z,3.34
2023-03-15T16:59:12.373Z,3.32
2023-03-15T17:04:15.551Z,3.28
2023-03-15T17:09:18.353Z,3.29
2023-03-15T17:14:21.036Z,3.17
2023-03-15T17:19:23.752Z,3.13
2023-03-15T17:24:26.458Z,3.13
2023-03-15T17:29:29.247Z,3.07
2023-03-15T17:34:33.913Z,3.08
2023-03-15T17:39:36.584Z,3.18
2023-03-15T17:44:39.756Z,3.02
2023-03-15T17:49:42.271Z,2.98
2023-03-15T17:54:45.452Z,2.82
2023-03-15T17:59:48.320Z,2.79
2023-03-15T18:04:51.057Z,2.89
2023-03-15T18:09:53.433Z,2.90
2023-03-15T18:14:55.782Z,2.83
2023-03-15T18:19:58.222Z,2.85
2023-03-15T18:25:01.348Z,2.90
2023-03-15T18:30:03.813Z,2.98
2023-03-15T18:35:07.262Z,2.81
2023-03-15T18:40:09.847Z,2.87
2023-03-15T18:45:12.208Z,2.66
2023-03-15T18:50:24.564Z,2.26
2023-03-15T18:55:27.059Z,2.25
2023-03-15T19:00:39.433Z,2.03
2023-03-15T19:05:41.879Z,2.05
2023-03-15T19:10:46.923Z,2.07
2023-03-15T19:15:50.172Z,2.06
2023-03-15T19:20:53.387Z,1.96
2023-03-15T19:25:55.920Z,2.00
2023-03-15T19:30:59.040Z,2.01
2023-03-15T19:36:01.613Z,2.07
2023-03-15T19:41:04.809Z,2.10
2023-03-15T19:46:08.136Z,2.10
2023-03-15T19:51:11.207Z,2.16
2023-03-15T19:56:14.611Z,2.28
2023-03-15T20:01:17.313Z,2.17
2023-03-15T20:06:21.359Z,2.14
2023-03-15T20:11:29.350Z,2.07
2023-03-15T20:16:32.739Z,2.06
2023-03-15T20:21:35.956Z,1.94
2023-03-15T20:26:38.431Z,1.88
2023-03-15T20:31:40.782Z,1.87
2023-03-15T20:36:43.672Z,1.88
2023-03-15T20:41:46.239Z,1.83
2023-03-15T20:46:48.659Z,1.74
2023-03-15T20:51:53.994Z,1.63
2023-03-15T20:56:57.168Z,1.69
2023-03-15T21:02:00.806Z,1.66
2023-03-15T21:07:04.292Z,1.60
2023-03-15T21:12:08.021Z,1.63
2023-03-15T21:17:10.508Z,1.57
2023-03-15T21:22:12.984Z,1.60
2023-03-15T21:27:15.926Z,1.55
2023-03-15T21:32:18.691Z,1.50
2023-03-15T21:37:21.320Z,1.50
2023-03-15T21:42:23.802Z,1.49
2023-03-15T21:47:27.569Z,1.51
2023-03-15T21:52:29.895Z,1.53
2023-03-15T21:57:34.186Z,1.43
2023-03-15T22:02:36.475Z,1.13
2023-03-15T22:07:47.561Z,0.95
2023-03-15T22:12:49.988Z,0.80
2023-03-15T22:17:52.306Z,0.71
2023-03-15T22:22:55.105Z,0.63
2023-03-15T22:27:57.440Z,0.59
2023-03-15T22:33:00.179Z,0.53
2023-03-15T22:38:10.022Z,0.55
2023-03-15T22:43:12.636Z,0.60
2023-03-15T22:48:15.306Z,0.64
2023-03-15T22:53:17.670Z,0.74
2023-03-15T22:58:20.251Z,0.84
2023-03-15T23:03:26.280Z,0.96
2023-03-15T23:08:28.621Z,1.01
2023-03-15T23:13:42.082Z,1.00
2023-03-15T23:18:44.768Z,1.03
2023-03-15T23:23:49.257Z,0.96
2023-03-15T23:28:51.721Z,1.01
2023-03-15T23:33:54.421Z,0.87
2023-03-15T23:38:56.712Z,0.80
2023-03-15T23:43:59.366Z,0.84
2023-03-15T23:49:01.973Z,0.83
2023-03-15T23:54:04.283Z,0.91
2023-03-15T23:59:06.679Z,0.90
